createdAt,value
2018-07-15T00:02:18.041Z,89.90
2018-07-15T00:04:46.355Z,90.00
2018-07-15T00:07:14.660Z,90.00
2018-07-15T00:09:43.202Z,90.20
2018-07-15T00:12:11.610Z,90.20
2018-07-15T00:14:39.941Z,90.40
2018-07-15T00:17:08.234Z,91.10
2018-07-15T00:19:36.528Z,91.60
2018-07-15T00:22:04.820Z,91.40
2018-07-15T00:24:33.197Z,91.40
2018-07-15T00:27:01.589Z,91.00
2018-07-15T00:29:29.929Z,90.90
2018-07-15T00:31:58.289Z,90.90
2018-07-15T00:34:26.611Z,91.10
2018-07-15T00:36:54.883Z,91.10
2018-07-15T00:41:51.297Z,90.90
2018-07-15T00:44:19.555Z,91.70
2018-07-15T00:46:47.919Z,91.50
2018-07-15T00:49:16.331Z,91.50
2018-07-15T00:51:44.660Z,91.70
2018-07-15T00:54:12.988Z,92.10
2018-07-15T00:56:41.309Z,92.00
2018-07-15T00:59:09.613Z,92.30
2018-07-15T01:01:37.987Z,91.90
2018-07-15T01:04:06.637Z,91.90
2018-07-15T01:06:35.041Z,92.10
2018-07-15T01:09:03.835Z,91.90
2018-07-15T01:11:32.175Z,92.30
2018-07-15T01:14:00.556Z,92.80
2018-07-15T01:16:28.836Z,92.90
2018-07-15T01:18:57.148Z,92.90
2018-07-15T01:21:25.490Z,93.00
2018-07-15T01:23:53.748Z,93.10
2018-07-15T01:26:22.086Z,92.70
2018-07-15T01:28:50.428Z,92.80
2018-07-15T01:31:18.781Z,92.50
2018-07-15T01:33:47.094Z,92.90
2018-07-15T01:36:15.372Z,93.40
2018-07-15T01:38:43.664Z,93.60
2018-07-15T01:41:11.934Z,94.10
2018-07-15T01:43:40.234Z,94.30
2018-07-15T01:46:08.491Z,94.70
2018-07-15T01:48:36.867Z,94.50
2018-07-15T01:51:05.203Z,94.50
2018-07-15T01:53:33.518Z,94.50
2018-07-15T01:56:01.855Z,94.60
2018-07-15T01:58:30.201Z,94.80
2018-07-15T02:00:58.465Z,95.00
2018-07-15T02:03:26.741Z,95.20
2018-07-15T02:05:55.086Z,95.20
2018-07-15T02:08:23.399Z,95.10
2018-07-15T02:10:51.729Z,95.20
2018-07-15T02:13:20.096Z,95.10
2018-07-15T02:15:48.343Z,94.70
2018-07-15T02:18:16.635Z,95.20
2018-07-15T02:20:44.970Z,94.80
2018-07-15T02:23:13.256Z,94.60
2018-07-15T02:25:41.597Z,94.60
2018-07-15T02:28:09.871Z,94.80
2018-07-15T02:30:38.200Z,94.80
2018-07-15T02:33:06.509Z,94.60
2018-07-15T02:38:02.928Z,94.80
2018-07-15T02:40:31.382Z,94.80
2018-07-15T02:42:59.679Z,94.60
2018-07-15T02:45:27.987Z,94.30
2018-07-15T02:47:56.333Z,94.10
2018-07-15T02:50:24.575Z,93.90
2018-07-15T02:52:52.943Z,94.00
2018-07-15T02:55:21.226Z,94.30
2018-07-15T02:57:50.440Z,93.80
2018-07-15T03:00:18.706Z,93.90
2018-07-15T03:02:47.399Z,94.10
2018-07-15T03:05:15.733Z,94.30
2018-07-15T03:07:44.016Z,94.30
2018-07-15T03:10:12.473Z,95.20
2018-07-15T03:12:40.769Z,95.60
2018-07-15T03:15:09.085Z,95.20
2018-07-15T03:17:37.343Z,95.30
2018-07-15T03:20:05.619Z,95.80
2018-07-15T03:22:33.898Z,95.90
2018-07-15T03:25:02.220Z,95.70
2018-07-15T03:27:30.566Z,94.70
2018-07-15T03:29:59.010Z,94.60
2018-07-15T03:32:27.361Z,95.20
2018-07-15T03:34:56.210Z,95.60
2018-07-15T03:37:24.585Z,96.00
2018-07-15T03:39:53.030Z,96.80
2018-07-15T03:42:21.223Z,98.10
2018-07-15T03:44:49.513Z,98.80
2018-07-15T03:47:17.852Z,99.40
2018-07-15T03:52:14.284Z,99.90
2018-07-15T03:54:42.566Z,99.90
2018-07-15T03:57:11.022Z,99.90
2018-07-15T03:59:39.416Z,99.90
2018-07-15T04:02:07.799Z,99.90
2018-07-15T04:04:36.078Z,99.90
2018-07-15T04:07:04.349Z,99.90
2018-07-15T04:09:32.728Z,99.90
2018-07-15T04:12:01.051Z,99.90
2018-07-15T04:14:29.387Z,99.90
2018-07-15T04:16:57.702Z,99.90
2018-07-15T04:19:25.990Z,99.90
2018-07-15T04:21:54.412Z,99.90
2018-07-15T04:24:22.691Z,99.90
2018-07-15T04:26:51.237Z,99.90
2018-07-15T04:29:19.559Z,99.90
2018-07-15T04:31:47.857Z,99.90
2018-07-15T04:34:16.153Z,99.90
2018-07-15T04:36:44.417Z,99.90
2018-07-15T04:39:12.760Z,99.90
2018-07-15T04:41:41.052Z,99.90
2018-07-15T04:46:37.361Z,99.90
2018-07-15T04:49:05.673Z,99.90
2018-07-15T04:51:34.011Z,99.90
2018-07-15T04:54:02.300Z,99.90
2018-07-15T04:56:30.630Z,99.90
2018-07-15T04:58:58.964Z,99.90
2018-07-15T05:01:27.213Z,99.90
2018-07-15T05:03:55.573Z,99.90
2018-07-15T05:06:23.861Z,99.90
2018-07-15T05:08:52.212Z,99.90
2018-07-15T05:11:20.568Z,99.90
2018-07-15T05:13:48.835Z,99.90
2018-07-15T05:16:17.118Z,99.90
2018-07-15T05:18:45.339Z,99.90
2018-07-15T05:21:13.618Z,99.90
2018-07-15T05:23:41.850Z,99.90
2018-07-15T05:26:10.116Z,99.90
2018-07-15T05:28:38.373Z,99.90
2018-07-15T05:31:07.504Z,99.90
2018-07-15T05:33:35.812Z,99.90
2018-07-15T05:36:04.173Z,99.90
2018-07-15T05:38:32.456Z,99.90
2018-07-15T05:41:00.769Z,99.90
2018-07-15T05:43:29.007Z,99.90
2018-07-15T05:45:58.065Z,99.90
2018-07-15T05:48:26.402Z,99.90
2018-07-15T05:50:54.736Z,99.90
2018-07-15T05:53:23.027Z,99.90
2018-07-15T05:55:51.386Z,99.90
2018-07-15T05:58:19.670Z,99.90
2018-07-15T06:00:48.039Z,99.90
2018-07-15T06:03:16.294Z,99.90
2018-07-15T06:05:44.635Z,99.90
2018-07-15T06:08:12.954Z,99.90
2018-07-15T06:10:41.334Z,99.90
2018-07-15T06:13:09.549Z,99.90
2018-07-15T06:15:37.883Z,99.90
2018-07-15T06:18:06.274Z,99.90
2018-07-15T06:20:34.557Z,99.90
2018-07-15T06:23:02.950Z,99.90
2018-07-15T06:25:31.288Z,99.90
2018-07-15T06:27:59.625Z,99.90
2018-07-15T06:30:27.924Z,99.90
2018-07-15T06:32:56.255Z,99.90
2018-07-15T06:35:24.573Z,99.90
2018-07-15T06:37:53.249Z,99.90
2018-07-15T06:40:21.531Z,99.90
2018-07-15T06:42:49.971Z,99.90
2018-07-15T06:45:18.380Z,99.90
2018-07-15T06:47:46.891Z,99.90
2018-07-15T06:50:15.207Z,99.90
2018-07-15T06:52:43.678Z,99.90
2018-07-15T06:55:12.118Z,99.90
2018-07-15T06:57:40.577Z,99.90
2018-07-15T07:00:09.272Z,99.70
2018-07-15T07:02:37.624Z,98.40
2018-07-15T07:05:05.983Z,97.90
2018-07-15T07:07:34.440Z,98.60
2018-07-15T07:10:02.869Z,96.50
2018-07-15T07:12:31.262Z,95.10
2018-07-15T07:14:59.517Z,94.20
2018-07-15T07:17:27.826Z,95.50
2018-07-15T07:19:56.216Z,93.10
2018-07-15T07:22:24.584Z,93.80
2018-07-15T07:24:52.853Z,93.90
2018-07-15T07:27:21.964Z,92.90
2018-07-15T07:29:50.277Z,92.80
2018-07-15T07:32:18.633Z,93.30
2018-07-15T07:34:47.041Z,93.40
2018-07-15T07:37:15.341Z,94.50
2018-07-15T07:39:43.613Z,95.60
2018-07-15T07:42:12.054Z,95.90
2018-07-15T07:44:40.404Z,95.60
2018-07-15T07:47:08.949Z,95.20
2018-07-15T07:49:37.257Z,95.20
2018-07-15T07:52:06.978Z,94.60
2018-07-15T07:54:35.501Z,94.60
2018-07-15T07:57:04.026Z,93.70
2018-07-15T07:59:32.557Z,91.90
2018-07-15T08:02:01.077Z,90.60
2018-07-15T08:04:29.317Z,85.70
2018-07-15T08:06:57.645Z,84.30
2018-07-15T08:09:25.883Z,81.80
2018-07-15T08:11:54.394Z,81.40
2018-07-15T08:14:22.759Z,77.00
2018-07-15T08:16:51.220Z,76.20
2018-07-15T08:19:19.561Z,75.20
2018-07-15T08:21:48.195Z,74.90
2018-07-15T08:24:16.572Z,74.50
2018-07-15T08:26:45.079Z,75.20
2018-07-15T08:29:13.468Z,72.90
2018-07-15T08:31:41.782Z,72.40
2018-07-15T08:34:10.088Z,71.80
2018-07-15T08:36:38.425Z,70.90
2018-07-15T08:39:07.803Z,72.10
2018-07-15T08:41:36.303Z,72.30
2018-07-15T08:44:04.677Z,73.40
2018-07-15T08:46:32.997Z,73.10
2018-07-15T08:49:01.580Z,74.80
2018-07-15T08:51:29.860Z,75.20
2018-07-15T08:53:58.189Z,76.80
2018-07-15T08:56:26.483Z,74.30
2018-07-15T08:58:54.883Z,74.80
2018-07-15T09:01:23.202Z,74.10
2018-07-15T09:03:51.638Z,76.20
2018-07-15T09:06:19.998Z,77.80
2018-07-15T09:08:48.381Z,74.50
2018-07-15T09:11:16.780Z,73.70
2018-07-15T09:13:45.121Z,73.90
2018-07-15T09:16:13.428Z,72.90
2018-07-15T09:18:41.768Z,73.90
2018-07-15T09:21:10.118Z,73.80
2018-07-15T09:23:38.669Z,74.40
2018-07-15T09:26:06.967Z,71.60
2018-07-15T09:28:35.286Z,72.40
2018-07-15T09:31:10.082Z,70.40
2018-07-15T09:33:38.485Z,70.70
2018-07-15T09:36:06.807Z,71.20
2018-07-15T09:38:35.062Z,71.80
2018-07-15T09:41:03.477Z,70.80
2018-07-15T09:43:31.779Z,70.10
2018-07-15T09:46:00.153Z,69.90
2018-07-15T09:48:28.498Z,68.90
2018-07-15T09:50:56.895Z,69.20
2018-07-15T09:53:25.367Z,69.20
2018-07-15T09:55:53.726Z,70.20
2018-07-15T09:58:22.069Z,69.60
2018-07-15T10:00:56.620Z,69.60
2018-07-15T10:03:26.078Z,70.80
2018-07-15T10:05:54.427Z,68.90
2018-07-15T10:10:51.394Z,68.90
2018-07-15T10:13:20.021Z,69.10
2018-07-15T10:15:48.670Z,68.50
2018-07-15T10:18:17.521Z,68.30
2018-07-15T10:20:45.858Z,68.00
2018-07-15T10:23:14.200Z,67.90
2018-07-15T10:25:42.520Z,67.10
2018-07-15T10:28:10.859Z,68.50
2018-07-15T10:30:39.160Z,66.40
2018-07-15T10:33:07.540Z,66.00
2018-07-15T10:35:35.796Z,66.10
2018-07-15T10:38:04.161Z,69.40
2018-07-15T10:40:32.576Z,70.60
2018-07-15T10:43:00.970Z,72.30
2018-07-15T10:45:29.516Z,68.90
2018-07-15T10:47:57.969Z,66.10
2018-07-15T10:52:54.377Z,69.60
2018-07-15T10:55:22.826Z,71.90
2018-07-15T10:57:51.194Z,72.10
2018-07-15T11:00:19.469Z,68.30
2018-07-15T11:02:47.763Z,68.50
2018-07-15T11:05:16.043Z,69.70
2018-07-15T11:07:44.534Z,66.20
2018-07-15T11:10:12.960Z,68.20
2018-07-15T11:12:41.235Z,67.90
2018-07-15T11:15:09.552Z,69.10
2018-07-15T11:17:37.818Z,68.60
2018-07-15T11:20:06.978Z,66.10
2018-07-15T11:22:35.940Z,66.20
2018-07-15T11:25:04.266Z,67.30
2018-07-15T11:27:32.567Z,64.10
2018-07-15T11:30:00.889Z,61.90
2018-07-15T11:32:29.211Z,62.70
2018-07-15T11:34:57.548Z,61.10
2018-07-15T11:37:25.912Z,60.10
2018-07-15T11:39:54.165Z,62.10
2018-07-15T11:42:22.541Z,59.60
2018-07-15T11:44:51.033Z,59.70
2018-07-15T11:47:19.523Z,59.50
2018-07-15T11:49:47.888Z,59.00
2018-07-15T11:52:16.278Z,58.50
2018-07-15T11:54:44.693Z,58.20
2018-07-15T11:57:13.249Z,59.10
2018-07-15T11:59:41.671Z,58.20
2018-07-15T12:02:10.214Z,58.50
2018-07-15T12:04:38.771Z,58.10
2018-07-15T12:07:07.100Z,57.80
2018-07-15T12:09:35.504Z,57.60
2018-07-15T12:12:03.976Z,58.60
2018-07-15T12:14:32.432Z,58.20
2018-07-15T12:17:00.806Z,58.10
2018-07-15T12:19:29.206Z,56.80
2018-07-15T12:21:57.789Z,56.10
2018-07-15T12:24:26.742Z,55.90
2018-07-15T12:26:55.030Z,56.30
2018-07-15T12:31:51.477Z,54.30
2018-07-15T12:34:19.798Z,53.50
2018-07-15T12:36:48.110Z,53.80
2018-07-15T12:39:16.480Z,51.20
2018-07-15T12:41:44.871Z,50.70
2018-07-15T12:44:13.228Z,50.40
2018-07-15T12:46:41.590Z,51.20
2018-07-15T12:49:09.862Z,52.30
2018-07-15T12:51:38.270Z,52.50
2018-07-15T12:54:06.715Z,53.40
2018-07-15T12:56:35.044Z,52.50
2018-07-15T12:59:03.511Z,52.10
2018-07-15T13:01:32.028Z,51.40
2018-07-15T13:04:00.414Z,50.80
2018-07-15T13:06:28.829Z,52.10
2018-07-15T13:08:57.239Z,51.80
2018-07-15T13:11:25.633Z,53.70
2018-07-15T13:13:54.159Z,52.70
2018-07-15T13:16:22.554Z,51.50
2018-07-15T13:18:50.790Z,51.40
2018-07-15T13:21:19.142Z,52.10
2018-07-15T13:23:47.462Z,50.80
2018-07-15T13:26:15.761Z,51.60
2018-07-15T13:28:44.118Z,49.80
2018-07-15T13:31:12.389Z,48.50
2018-07-15T13:33:40.658Z,49.00
2018-07-15T13:36:08.973Z,48.70
2018-07-15T13:38:37.328Z,48.60
2018-07-15T13:41:05.774Z,49.60
2018-07-15T13:43:34.082Z,49.90
2018-07-15T13:46:02.541Z,50.50
2018-07-15T13:48:30.863Z,48.80
2018-07-15T13:50:59.223Z,47.20
2018-07-15T13:53:27.534Z,45.70
2018-07-15T13:55:55.923Z,47.60
2018-07-15T13:58:24.343Z,46.30
2018-07-15T14:00:52.660Z,45.10
2018-07-15T14:03:21.131Z,44.90
2018-07-15T14:05:49.437Z,46.40
2018-07-15T14:08:18.051Z,43.50
2018-07-15T14:10:46.482Z,44.20
2018-07-15T14:13:14.759Z,44.10
2018-07-15T14:15:43.065Z,43.50
2018-07-15T14:18:11.387Z,44.60
2018-07-15T14:20:39.623Z,42.90
2018-07-15T14:23:07.916Z,42.80
2018-07-15T14:25:36.985Z,44.00
2018-07-15T14:28:05.744Z,42.60
2018-07-15T14:30:34.048Z,42.10
2018-07-15T14:33:02.361Z,40.70
2018-07-15T14:35:30.714Z,40.80
2018-07-15T14:37:59.127Z,41.00
2018-07-15T14:40:27.489Z,41.40
2018-07-15T14:42:55.823Z,43.40
2018-07-15T14:45:24.223Z,43.00
2018-07-15T14:47:52.504Z,40.80
2018-07-15T14:50:20.846Z,42.20
2018-07-15T14:52:49.266Z,43.20
2018-07-15T14:55:17.648Z,45.10
2018-07-15T14:57:45.942Z,41.70
2018-07-15T15:00:14.267Z,42.50
2018-07-15T15:02:42.659Z,43.10
2018-07-15T15:05:11.271Z,43.00
2018-07-15T15:07:40.015Z,42.10
2018-07-15T15:10:08.571Z,43.20
2018-07-15T15:12:37.165Z,42.90
2018-07-15T15:15:06.050Z,43.40
2018-07-15T15:17:35.141Z,45.10
2018-07-15T15:20:03.880Z,43.70
2018-07-15T15:22:32.340Z,44.20
2018-07-15T15:27:29.118Z,46.20
2018-07-15T15:29:57.485Z,46.50
2018-07-15T15:32:25.796Z,46.30
2018-07-15T15:34:54.531Z,47.60
2018-07-15T15:37:22.995Z,48.70
2018-07-15T15:39:51.470Z,48.10
2018-07-15T15:42:20.002Z,50.20
2018-07-15T15:44:48.469Z,50.60
2018-07-15T15:47:16.930Z,54.50
2018-07-15T15:49:46.107Z,53.20
2018-07-15T15:52:14.824Z,51.80
2018-07-15T15:54:43.250Z,53.20
2018-07-15T15:57:11.773Z,54.20
2018-07-15T16:02:08.634Z,53.70
2018-07-15T16:04:37.277Z,56.50
2018-07-15T16:07:06.245Z,53.80
2018-07-15T16:09:34.699Z,56.00
2018-07-15T16:12:03.848Z,58.70
2018-07-15T16:14:32.595Z,58.10
2018-07-15T16:17:01.267Z,59.10
2018-07-15T16:19:29.767Z,62.00
2018-07-15T16:21:58.424Z,60.40
2018-07-15T16:24:26.938Z,60.40
2018-07-15T16:26:56.119Z,60.70
2018-07-15T16:29:25.441Z,59.60
2018-07-15T16:31:53.791Z,60.90
2018-07-15T16:34:22.201Z,62.80
2018-07-15T16:36:51.346Z,66.50
2018-07-15T16:39:19.898Z,71.00
2018-07-15T16:41:48.576Z,76.40
2018-07-15T16:44:17.908Z,83.80
2018-07-15T16:46:46.215Z,90.00
2018-07-15T16:49:14.542Z,93.50
2018-07-15T16:51:42.959Z,95.40
2018-07-15T16:54:11.520Z,97.60
2018-07-15T16:56:39.955Z,99.30
2018-07-15T16:59:08.378Z,99.90
2018-07-15T17:01:37.043Z,99.90
2018-07-15T17:04:05.451Z,99.90
2018-07-15T17:06:34.212Z,99.90
2018-07-15T17:09:02.625Z,99.90
2018-07-15T17:14:02.448Z,99.90
2018-07-15T17:16:31.355Z,99.90
2018-07-15T17:19:00.024Z,99.90
2018-07-15T17:21:28.454Z,99.90
2018-07-15T17:23:56.873Z,99.90
2018-07-15T17:28:53.752Z,99.90
2018-07-15T17:31:22.175Z,99.90
2018-07-15T17:33:50.562Z,99.90
2018-07-15T17:36:19.307Z,99.90
2018-07-15T17:38:47.918Z,99.90
2018-07-15T17:41:18.140Z,99.90
2018-07-15T17:43:51.550Z,99.90
2018-07-15T17:46:22.097Z,99.90
2018-07-15T17:48:51.224Z,99.90
2018-07-15T17:51:19.533Z,99.90
2018-07-15T17:53:47.936Z,99.90
2018-07-15T17:56:16.765Z,99.90
2018-07-15T17:58:45.879Z,99.90
2018-07-15T18:01:16.848Z,99.90
2018-07-15T18:03:45.730Z,99.90
2018-07-15T18:06:14.550Z,99.90
2018-07-15T18:08:43.070Z,99.90
2018-07-15T18:11:11.369Z,99.90
2018-07-15T18:13:40.391Z,99.90
2018-07-15T18:16:09.308Z,99.90
2018-07-15T18:18:37.601Z,99.90
2018-07-15T18:21:05.907Z,99.90
2018-07-15T18:23:34.475Z,99.90
2018-07-15T18:26:02.900Z,99.90
2018-07-15T18:28:31.212Z,99.90
2018-07-15T18:30:59.543Z,99.90
2018-07-15T18:33:28.481Z,99.90
2018-07-15T18:35:56.903Z,99.90
2018-07-15T18:38:25.381Z,99.90
2018-07-15T18:40:53.781Z,99.90
2018-07-15T18:43:22.358Z,99.90
2018-07-15T18:45:50.750Z,99.90
2018-07-15T18:48:20.020Z,99.90
2018-07-15T18:50:48.545Z,99.90
2018-07-15T18:53:17.271Z,99.90
2018-07-15T18:55:48.400Z,99.90
2018-07-15T18:58:16.732Z,99.90
2018-07-15T19:00:45.346Z,99.90
2018-07-15T19:03:13.876Z,99.90
2018-07-15T19:05:42.183Z,99.90
2018-07-15T19:08:10.424Z,99.90
2018-07-15T19:10:38.845Z,99.90
2018-07-15T19:13:07.256Z,99.90
2018-07-15T19:15:35.624Z,99.90
2018-07-15T19:18:04.110Z,99.90
2018-07-15T19:20:32.793Z,99.90
2018-07-15T19:23:01.274Z,99.90
2018-07-15T19:25:29.646Z,99.90
2018-07-15T19:27:58.134Z,99.90
2018-07-15T19:30:26.487Z,99.90
2018-07-15T19:32:54.925Z,99.90
2018-07-15T19:35:23.246Z,99.90
2018-07-15T19:37:51.686Z,99.90
2018-07-15T19:40:19.998Z,99.90
2018-07-15T19:42:48.420Z,99.90
2018-07-15T19:45:16.709Z,99.90
2018-07-15T19:47:45.059Z,99.90
2018-07-15T19:50:13.463Z,99.90
2018-07-15T19:52:41.984Z,99.90
2018-07-15T19:55:10.434Z,99.90
2018-07-15T19:57:38.859Z,99.90
2018-07-15T20:00:07.491Z,99.90
2018-07-15T20:02:35.839Z,99.90
2018-07-15T20:05:04.350Z,99.90
2018-07-15T20:07:33.090Z,99.90
2018-07-15T20:10:02.104Z,99.90
2018-07-15T20:12:30.478Z,99.90
2018-07-15T20:14:58.845Z,99.90
2018-07-15T20:17:27.191Z,99.90
2018-07-15T20:19:55.801Z,99.90
2018-07-15T20:22:24.174Z,99.90
2018-07-15T20:24:52.571Z,99.90
2018-07-15T20:27:21.082Z,99.90
2018-07-15T20:29:50.001Z,99.90
2018-07-15T20:32:18.776Z,99.90
2018-07-15T20:34:47.390Z,99.90
2018-07-15T20:37:15.956Z,99.90
2018-07-15T20:39:44.513Z,99.90
2018-07-15T20:42:12.908Z,99.90
2018-07-15T20:44:41.731Z,99.90
2018-07-15T20:47:10.732Z,99.90
2018-07-15T20:49:40.061Z,99.90
2018-07-15T20:52:08.566Z,99.90
2018-07-15T20:54:36.848Z,99.90
2018-07-15T20:57:05.546Z,99.90
2018-07-15T20:59:33.873Z,99.90
2018-07-15T21:02:02.363Z,99.90
2018-07-15T21:04:32.476Z,99.90
2018-07-15T21:07:00.883Z,99.90
2018-07-15T21:09:29.299Z,99.90
2018-07-15T21:11:57.706Z,99.90
2018-07-15T21:14:26.023Z,99.90
2018-07-15T21:16:54.549Z,99.90
2018-07-15T21:19:22.815Z,99.90
2018-07-15T21:21:51.148Z,99.90
2018-07-15T21:24:19.470Z,99.90
2018-07-15T21:26:47.856Z,99.90
2018-07-15T21:29:16.158Z,99.90
2018-07-15T21:31:44.542Z,99.90
2018-07-15T21:34:12.940Z,99.90
2018-07-15T21:36:41.280Z,99.90
2018-07-15T21:39:10.268Z,99.90
2018-07-15T21:41:38.769Z,99.90
2018-07-15T21:44:07.346Z,99.90
2018-07-15T21:46:35.687Z,99.90
2018-07-15T21:49:04.085Z,99.90
2018-07-15T21:51:32.423Z,99.90
2018-07-15T21:54:00.732Z,99.90
2018-07-15T21:56:29.105Z,99.90
2018-07-15T21:58:57.526Z,99.90
2018-07-15T22:01:33.444Z,99.90
2018-07-15T22:04:01.742Z,99.90
2018-07-15T22:06:41.363Z,99.90
2018-07-15T22:09:20.842Z,99.90
2018-07-15T22:11:49.227Z,99.90
2018-07-15T22:14:17.506Z,99.90
2018-07-15T22:16:45.782Z,99.90
2018-07-15T22:19:14.071Z,99.90
2018-07-15T22:21:42.422Z,99.90
2018-07-15T22:24:10.665Z,99.90
2018-07-15T22:26:39.049Z,99.90
2018-07-15T22:29:07.334Z,99.90
2018-07-15T22:31:35.645Z,99.90
2018-07-15T22:34:04.042Z,99.90
2018-07-15T22:36:32.324Z,99.90
2018-07-15T22:39:00.642Z,99.90
2018-07-15T22:41:28.934Z,99.90
2018-07-15T22:43:57.282Z,99.90
2018-07-15T22:46:25.617Z,99.90
2018-07-15T22:48:53.893Z,99.90
2018-07-15T22:51:22.226Z,99.90
2018-07-15T22:53:50.543Z,99.90
2018-07-15T22:56:18.838Z,99.90
2018-07-15T22:58:47.163Z,99.90
2018-07-15T23:01:15.488Z,99.90
2018-07-15T23:03:43.772Z,99.90
2018-07-15T23:06:19.906Z,99.90
2018-07-15T23:08:48.230Z,99.90
2018-07-15T23:11:16.644Z,99.90
2018-07-15T23:13:44.923Z,99.90
2018-07-15T23:16:13.186Z,99.90
2018-07-15T23:18:41.428Z,99.90
2018-07-15T23:21:09.774Z,99.90
2018-07-15T23:23:39.111Z,99.90
2018-07-15T23:26:07.736Z,99.90
2018-07-15T23:28:36.131Z,99.90
2018-07-15T23:31:04.420Z,99.90
2018-07-15T23:33:32.755Z,99.90
2018-07-15T23:36:01.008Z,99.90
2018-07-15T23:38:29.372Z,99.90
2018-07-15T23:40:57.824Z,99.90
2018-07-15T23:43:26.088Z,99.90
2018-07-15T23:45:54.428Z,99.90
2018-07-15T23:48:22.726Z,99.90
2018-07-15T23:50:51.123Z,99.90
2018-07-15T23:53:19.513Z,99.90
2018-07-15T23:55:49.351Z,99.90
2018-07-15T23:58:17.584Z,99.90
